• Join FlightAware (Why Join?)
  • Login
  • US Flag 
07:17PM EDT


 

Airport Tracker/Info


-or-


 

Live Flight TrackerFlight Track Log ✈ SWA499 ✈ 12-May-2013 ✈ KDEN - KMCI

Flight Track Log - Related Links

Times and Time Zones

All times are in EDT time to prevent confusion due to time zone crossing. See the SWA499 flight status page for this flight to view local times or setup timezone preferences in your user account.

Time Position Orientation Groundspeed Altitude Reporting Facility
EDT Latitude Longitude Course Direction KTS MPH feet Rate Location/Type
12:35PM 39.8833 -104.6000 136° Southeast 178 205 6,400  Level Denver TRACON
12:35PM 39.8733 -104.5872 136° Southeast 178 205 6,900 1,440 Climbing Denver Center
12:36PM 39.8464 -104.5017 112° Southeast 258 297 8,400 2,580 Climbing Denver Center
12:37PM 39.8111 -104.3931 113° Southeast 297 342 12,300 3,660 Climbing Denver Center
12:38PM 39.8033 -104.2769 95° East 319 367 16,000 2,940 Climbing Denver Center
12:39PM 39.7867 -104.1389 99° East 368 423 18,400 2,340 Climbing Denver Center
12:40PM 39.7753 -104.0328 98° East 382 440 20,900 3,000 Climbing Denver Center
12:41PM 39.7553 -103.8511 98° East 388 447 24,700 2,880 Climbing Denver Center
12:42PM 39.7378 -103.7061 99° East 399 459 27,000 1,980 Climbing Denver Center
12:43PM 39.7278 -103.5653 95° East 407 468 28,900 1,920 Climbing Denver Center
12:44PM 39.7144 -103.3953 96° East 427 491 31,000 2,220 Climbing Denver Center
12:45PM 39.7022 -103.2483 96° East 427 491 33,500 1,920 Climbing Denver Center
12:46PM 39.6889 -103.0839 96° East 410 472 35,000 840 Climbing Denver Center
12:47PM 39.6761 -102.9406 97° East 418 481 35,300 960 Climbing Denver Center
12:48PM 39.6625 -102.7764 96° East 411 473 37,100 1,380 Climbing Denver Center
12:49PM 39.6511 -102.6342 96° East 413 475 38,200 840 Climbing Denver Center
12:50PM 39.6361 -102.4658 97° East 421 484 38,900 360 Climbing Denver Center
12:52PM 39.6225 -102.3156 97° East 436 502 39,000  Climbing Denver Center
12:53PM 39.6081 -102.1444 96° East 429 494 39,000  Level Denver Center
12:54PM 39.5950 -101.9989 97° East 424 488 39,000  Level Denver Center
12:55PM 39.5789 -101.8294 97° East 424 488 39,000  Level Denver Center
12:56PM 39.5653 -101.6853 97° East 424 488 39,000  Level Denver Center
12:57PM 39.5508 -101.5186 96° East 420 483 39,000  Level Denver Center
12:58PM 39.5364 -101.3733 97° East 425 489 39,000  Level Denver Center
12:59PM 39.5197 -101.2044 97° East 427 491 39,000  Level Denver Center
01:00PM 39.5056 -101.0589 97° East 429 494 39,000  Level Denver Center
01:01PM 39.4889 -100.8900 97° East 427 491 39,000  Level Denver Center
01:02PM 39.4736 -100.7453 98° East 427 491 39,000 -300 Level Denver Center
01:03PM 39.4594 -100.6006 97° East 425 489 38,500 -780 Descending Denver Center
01:04PM 39.4422 -100.4322 97° East 424 488 37,400 -780 Descending Denver Center
01:05PM 39.4264 -100.2839 98° East 430 495 37,000 -240 Descending Denver Center
01:06PM 39.4078 -100.1086 98° East 439 505 37,000  Level Denver Center
01:07PM 39.3917 -99.9619 98° East 435 501 37,000  Level Denver Center
01:08PM 39.3725 -99.7872 98° East 438 504 37,000  Level Denver Center
01:09PM 39.3511 -99.5886 98° East 439 505 37,000  Level Denver Center
01:10PM 39.3336 -99.4394 99° East 438 504 37,000  Level Denver Center
01:11PM 39.3144 -99.2631 98° East 442 509 37,000  Level Denver Center
01:12PM 39.2961 -99.1156 99° East 440 506 37,000  Level Denver Center
01:13PM 39.2769 -98.9406 98° East 441 507 37,000  Level Denver Center
01:14PM 39.2603 -98.8028 99° East 444 511 37,000  Level Denver Center
01:16PM 39.2369 -98.6139 99° East 445 512 37,000  Level Denver Center
01:17PM 39.2181 -98.4539 99° East 448 516 37,000  Level Denver Center
01:17PM 39.2081 -98.3686 99° East 452 520 37,000 -660 Level Kansas City Center
01:18PM 39.1878 -98.2081 99° East 453 521 36,000 -960 Descending Kansas City Center
01:19PM 39.1658 -98.0447 100° East 459 528 35,100 -540 Descending Kansas City Center
01:20PM 39.1433 -97.8497 98° East 465 535 35,000 -60 Descending Kansas City Center
01:21PM 39.1225 -97.6933 100° East 463 533 35,000 -240 Level Kansas City Center
01:22PM 39.0989 -97.5103 99° East 464 534 34,600 -660 Descending Kansas City Center
01:23PM 39.0775 -97.3533 100° East 464 534 33,700 -1,020 Descending Kansas City Center
01:24PM 39.0536 -97.1697 99° East 465 535 32,600 -1,020 Descending Kansas City Center
01:25PM 39.0328 -97.0142 100° East 463 533 31,700 -960 Descending Kansas City Center
01:26PM 39.0125 -96.8597 100° East 460 529 30,700 -1,080 Descending Kansas City Center
01:27PM 38.9881 -96.6825 100° East 454 522 29,500 -1,380 Descending Kansas City Center
01:28PM 38.9678 -96.5428 101° East 453 521 27,900 -1,920 Descending Kansas City Center
01:30PM 38.9419 -96.3603 100° East 441 507 25,600 -2,220 Descending Kansas City Center
01:31PM 38.9211 -96.2142 100° East 437 503 23,400 -2,340 Descending Kansas City Center
01:32PM 38.8967 -96.0489 101° East 425 489 20,800 -2,280 Descending Kansas City Center
01:33PM 38.8767 -95.9125 101° East 409 471 18,700 -2,040 Descending Kansas City Center
01:34PM 38.8547 -95.7572 100° East 400 460 16,700 -1,980 Descending Kansas City Center
01:35PM 38.8353 -95.6264 101° East 393 452 14,700 -2,040 Descending Kansas City Center
01:36PM 38.8144 -95.4797 100° East 378 435 12,500 -1,740 Descending Kansas City Center
01:37PM 38.8381 -95.3717 74° East 338 389 11,200 -1,260 Descending Kansas City Center
01:38PM 38.8975 -95.2781 51° Northeast 305 351 9,900 -1,380 Descending Kansas City Center
01:39PM 38.9444 -95.2003 52° Northeast 290 334 8,400 -1,500 Descending Kansas City Center
01:40PM 38.9964 -95.1117 53° Northeast 281 323 6,800 -1,380 Descending Kansas City Center
01:41PM 39.0419 -95.0394 51° Northeast 273 314 5,600 -1,260 Descending Kansas City Center
01:42PM 39.0925 -94.9547 52° Northeast 269 310 4,200 -1,320 Descending Kansas City Center
01:43PM 39.1353 -94.8856 51° Northeast 260 299 3,000 -600 Descending Kansas City Center
01:44PM 39.1736 -94.8214 52° Northeast 236 272 3,000 -180 Level Kansas City Center
01:45PM 39.2117 -94.7642 49° Northeast 184 212 2,700 -540 Descending Kansas City Center
01:46PM 39.2447 -94.7428 27° Northeast 142 163 2,000 -780 Descending Kansas City Center
01:47PM 39.2856 -94.7311 12° North 136 157 1,200 -780 Descending Kansas City Center
01:49PM 39.2833 -94.7000 67° East  Level FlightAware Approximate